createdAt,value
2023-01-20T00:00:36.805Z,0.00
2023-01-20T00:01:36.756Z,0.00
2023-01-20T00:02:36.786Z,0.00
2023-01-20T00:03:36.832Z,0.00
2023-01-20T00:04:36.749Z,0.00
2023-01-20T00:05:36.708Z,0.00
2023-01-20T00:06:36.705Z,0.00
2023-01-20T00:07:36.696Z,0.00
2023-01-20T00:08:36.695Z,0.00
2023-01-20T00:09:36.684Z,0.00
2023-01-20T00:10:36.664Z,0.00
2023-01-20T00:11:36.649Z,0.00
2023-01-20T00:12:36.643Z,0.00
2023-01-20T00:13:36.630Z,0.00
2023-01-20T00:14:36.637Z,0.00
2023-01-20T00:15:36.633Z,0.00
2023-01-20T00:16:36.598Z,0.00
2023-01-20T00:17:36.585Z,0.00
2023-01-20T00:18:36.601Z,0.00
2023-01-20T00:19:36.596Z,0.00
2023-01-20T00:20:36.555Z,0.00
2023-01-20T00:21:36.539Z,0.00
2023-01-20T00:22:36.537Z,0.00
2023-01-20T00:23:36.555Z,0.00
2023-01-20T00:24:36.538Z,0.00
2023-01-20T00:25:36.497Z,0.00
2023-01-20T00:26:36.493Z,0.00
2023-01-20T00:27:36.475Z,0.00
2023-01-20T00:28:36.489Z,0.00
2023-01-20T00:29:36.478Z,0.00
2023-01-20T00:30:36.468Z,0.00
2023-01-20T00:31:36.560Z,0.00
2023-01-20T00:32:36.423Z,0.00
2023-01-20T00:33:36.434Z,0.00
2023-01-20T00:34:36.448Z,0.00
2023-01-20T00:35:36.392Z,0.00
2023-01-20T00:36:36.393Z,0.00
2023-01-20T00:37:36.367Z,0.00
2023-01-20T00:38:36.366Z,0.00
2023-01-20T00:39:36.377Z,0.00
2023-01-20T00:40:36.341Z,0.00
2023-01-20T00:41:36.328Z,0.00
2023-01-20T00:42:36.316Z,0.00
2023-01-20T00:43:36.309Z,0.00
2023-01-20T00:44:36.318Z,0.00
2023-01-20T00:45:36.280Z,0.00
2023-01-20T00:46:36.280Z,0.00
2023-01-20T00:47:36.264Z,0.00
2023-01-20T00:48:36.257Z,0.00
2023-01-20T00:49:36.256Z,0.00
2023-01-20T00:50:36.255Z,0.00
2023-01-20T00:51:36.222Z,0.00
2023-01-20T00:52:36.212Z,0.00
2023-01-20T00:53:36.220Z,0.00
2023-01-20T00:54:36.186Z,0.00
2023-01-20T00:55:36.176Z,0.00
2023-01-20T00:56:36.194Z,0.00
2023-01-20T00:57:36.149Z,0.00
2023-01-20T00:58:36.167Z,0.00
2023-01-20T00:59:36.129Z,0.00
2023-01-20T01:00:36.156Z,0.00
2023-01-20T01:01:36.302Z,0.00
2023-01-20T01:02:36.110Z,0.00
2023-01-20T01:03:36.102Z,0.00
2023-01-20T01:04:36.079Z,0.00
2023-01-20T01:05:36.067Z,0.00
2023-01-20T01:06:36.100Z,0.00
2023-01-20T01:07:36.048Z,0.00
2023-01-20T01:08:36.061Z,0.00
2023-01-20T01:09:36.050Z,0.00
2023-01-20T01:10:36.015Z,0.00
2023-01-20T01:11:36.003Z,0.00
2023-01-20T01:12:35.994Z,0.00
2023-01-20T01:13:36.004Z,0.00
2023-01-20T01:14:35.975Z,0.00
2023-01-20T01:15:35.960Z,0.00
2023-01-20T01:16:35.989Z,0.00
2023-01-20T01:17:35.963Z,0.00
2023-01-20T01:18:35.935Z,0.00
2023-01-20T01:19:35.920Z,0.00
2023-01-20T01:20:35.905Z,0.00
2023-01-20T01:21:35.901Z,0.00
2023-01-20T01:22:35.934Z,0.00
2023-01-20T01:23:35.870Z,0.00
2023-01-20T01:24:35.892Z,0.00
2023-01-20T01:25:35.852Z,0.00
2023-01-20T01:26:35.841Z,0.00
2023-01-20T01:27:35.831Z,0.00
2023-01-20T01:28:35.832Z,0.00
2023-01-20T01:29:35.830Z,0.00
2023-01-20T01:30:35.845Z,0.00
2023-01-20T01:31:35.832Z,0.00
2023-01-20T01:32:35.777Z,0.00
2023-01-20T01:33:35.774Z,0.00
2023-01-20T01:34:35.785Z,0.00
2023-01-20T01:35:35.748Z,0.00
2023-01-20T01:36:35.756Z,0.00
2023-01-20T01:37:35.736Z,0.00
2023-01-20T01:38:35.737Z,0.00
2023-01-20T01:39:35.742Z,0.00
2023-01-20T01:40:35.728Z,0.00
2023-01-20T01:41:35.696Z,0.00
2023-01-20T01:42:35.673Z,0.00
2023-01-20T01:43:35.671Z,0.00
2023-01-20T01:44:35.650Z,0.00
2023-01-20T01:45:35.709Z,0.00
2023-01-20T01:46:35.647Z,0.00
2023-01-20T01:47:35.620Z,0.00
2023-01-20T01:48:35.618Z,0.00
2023-01-20T01:49:35.599Z,0.00
2023-01-20T01:50:35.609Z,0.00
2023-01-20T01:51:35.586Z,0.00
2023-01-20T01:52:35.562Z,0.00
2023-01-20T01:53:35.604Z,0.00
2023-01-20T01:54:35.559Z,0.00
2023-01-20T01:55:35.533Z,0.00
2023-01-20T01:56:35.529Z,0.00
2023-01-20T01:57:35.515Z,0.00
2023-01-20T01:58:35.503Z,0.00
2023-01-20T01:59:35.507Z,0.00
2023-01-20T02:00:35.495Z,0.00
2023-01-20T02:01:35.541Z,0.00
2023-01-20T02:02:35.476Z,0.00
2023-01-20T02:03:35.447Z,0.00
2023-01-20T02:04:35.447Z,0.00
2023-01-20T02:05:35.454Z,0.00
2023-01-20T02:06:35.410Z,0.00
2023-01-20T02:07:35.408Z,0.00
2023-01-20T02:08:35.390Z,0.00
2023-01-20T02:09:35.386Z,0.00
2023-01-20T02:10:35.405Z,0.00
2023-01-20T02:11:35.361Z,0.00
2023-01-20T02:12:35.346Z,0.00
2023-01-20T02:13:35.367Z,0.00
2023-01-20T02:14:35.335Z,0.00
2023-01-20T02:15:35.318Z,0.00
2023-01-20T02:16:35.383Z,0.00
2023-01-20T02:17:35.308Z,0.00
2023-01-20T02:18:35.305Z,0.00
2023-01-20T02:19:35.272Z,0.00
2023-01-20T02:20:35.264Z,0.00
2023-01-20T02:21:35.259Z,0.00
2023-01-20T02:22:35.243Z,0.00
2023-01-20T02:23:35.258Z,0.00
2023-01-20T02:24:35.219Z,0.00
2023-01-20T02:25:35.209Z,0.00
2023-01-20T02:26:35.213Z,0.00
2023-01-20T02:27:35.207Z,0.00
2023-01-20T02:28:35.179Z,0.00
2023-01-20T02:29:35.169Z,0.00
2023-01-20T02:30:35.200Z,0.00
2023-01-20T02:31:35.177Z,0.00
2023-01-20T02:32:35.127Z,0.00
2023-01-20T02:33:35.141Z,0.00
2023-01-20T02:34:35.114Z,0.00
2023-01-20T02:35:35.133Z,0.00
2023-01-20T02:36:35.090Z,0.00
2023-01-20T02:37:35.085Z,0.00
2023-01-20T02:38:35.073Z,0.00
2023-01-20T02:39:35.085Z,0.00
2023-01-20T02:40:35.065Z,0.00
2023-01-20T02:41:35.038Z,0.00
2023-01-20T02:42:35.053Z,0.00
2023-01-20T02:43:35.020Z,0.00
2023-01-20T02:44:35.038Z,0.00
2023-01-20T02:45:35.021Z,0.00
2023-01-20T02:46:34.986Z,0.00
2023-01-20T02:47:34.976Z,0.00
2023-01-20T02:48:34.964Z,0.00
2023-01-20T02:49:34.968Z,0.00
2023-01-20T02:50:34.965Z,0.00
2023-01-20T02:51:34.930Z,0.00
2023-01-20T02:52:34.920Z,0.00
2023-01-20T02:53:34.906Z,0.00
2023-01-20T02:54:34.894Z,0.00
2023-01-20T02:55:34.907Z,0.00
2023-01-20T02:56:34.882Z,0.00
2023-01-20T02:57:34.868Z,0.00
2023-01-20T02:58:34.878Z,0.00
2023-01-20T02:59:34.850Z,0.00
2023-01-20T03:00:34.862Z,0.00
2023-01-20T03:01:34.967Z,0.00
2023-01-20T03:02:34.812Z,0.00
2023-01-20T03:03:34.815Z,0.00
2023-01-20T03:04:34.805Z,0.00
2023-01-20T03:05:34.862Z,0.00
2023-01-20T03:06:34.772Z,0.00
2023-01-20T03:07:34.765Z,0.00
2023-01-20T03:08:34.747Z,0.00
2023-01-20T03:09:34.733Z,0.00
2023-01-20T03:10:34.752Z,0.00
2023-01-20T03:11:36.208Z,0.00
2023-01-20T03:12:34.704Z,0.00
2023-01-20T03:13:34.691Z,0.00
2023-01-20T03:14:34.728Z,0.00
2023-01-20T03:15:34.701Z,0.00
2023-01-20T03:16:34.663Z,0.00
2023-01-20T03:17:34.657Z,0.00
2023-01-20T03:18:34.644Z,0.00
2023-01-20T03:19:34.625Z,0.00
2023-01-20T03:20:34.621Z,0.00
2023-01-20T03:21:34.620Z,0.00
2023-01-20T03:22:34.596Z,0.00
2023-01-20T03:23:34.612Z,0.00
2023-01-20T03:24:34.576Z,0.00
2023-01-20T03:25:34.563Z,0.00
2023-01-20T03:26:34.563Z,0.00
2023-01-20T03:27:34.543Z,0.00
2023-01-20T03:28:34.559Z,0.00
2023-01-20T03:29:34.523Z,0.00
2023-01-20T03:30:34.656Z,0.00
2023-01-20T03:31:34.649Z,0.00
2023-01-20T03:32:34.495Z,0.00
2023-01-20T03:33:34.476Z,0.00
2023-01-20T03:34:34.522Z,0.00
2023-01-20T03:35:34.458Z,0.00
2023-01-20T03:36:34.447Z,0.00
2023-01-20T03:37:34.430Z,0.00
2023-01-20T03:38:34.431Z,0.00
2023-01-20T03:39:34.441Z,0.00
2023-01-20T03:40:34.415Z,0.00
2023-01-20T03:41:34.394Z,0.00
2023-01-20T03:42:34.382Z,0.00
2023-01-20T03:43:34.406Z,0.00
2023-01-20T03:44:34.363Z,0.00
2023-01-20T03:45:34.346Z,0.00
2023-01-20T03:46:34.357Z,0.00
2023-01-20T03:47:34.329Z,0.00
2023-01-20T03:48:34.324Z,0.00
2023-01-20T03:49:34.326Z,0.00
2023-01-20T03:50:34.298Z,0.00
2023-01-20T03:51:34.284Z,0.00
2023-01-20T03:52:46.931Z,0.00
2023-01-20T03:53:35.260Z,0.00
2023-01-20T03:54:34.278Z,0.00
2023-01-20T03:55:34.241Z,0.00
2023-01-20T03:56:34.234Z,0.00
2023-01-20T03:57:34.240Z,0.00
2023-01-20T03:58:34.214Z,0.00
2023-01-20T03:59:34.204Z,0.00
2023-01-20T04:00:34.195Z,0.00
2023-01-20T04:01:34.358Z,0.00
2023-01-20T04:02:34.216Z,0.00
2023-01-20T04:03:34.287Z,0.00
2023-01-20T04:04:34.151Z,0.00
2023-01-20T04:05:34.132Z,0.00
2023-01-20T04:06:34.124Z,0.00
2023-01-20T04:07:34.111Z,0.00
2023-01-20T04:08:34.147Z,0.00
2023-01-20T04:09:34.120Z,0.00
2023-01-20T04:10:34.094Z,0.00
2023-01-20T04:11:34.091Z,0.00
2023-01-20T04:12:34.056Z,0.00
2023-01-20T04:13:34.075Z,0.00
2023-01-20T04:14:34.037Z,0.00
2023-01-20T04:15:34.046Z,0.00
2023-01-20T04:16:34.038Z,0.00
2023-01-20T04:17:34.006Z,0.00
2023-01-20T04:18:34.038Z,0.00
2023-01-20T04:19:33.987Z,0.00
2023-01-20T04:20:33.975Z,0.00
2023-01-20T04:21:33.967Z,0.00
2023-01-20T04:22:33.966Z,0.00
2023-01-20T04:23:33.966Z,0.00
2023-01-20T04:24:33.932Z,0.00
2023-01-20T04:25:33.922Z,0.00
2023-01-20T04:26:33.911Z,0.00
2023-01-20T04:27:33.897Z,0.00
2023-01-20T04:28:33.909Z,0.00
2023-01-20T04:29:33.907Z,0.00
2023-01-20T04:30:33.916Z,0.00
2023-01-20T04:31:33.977Z,0.00
2023-01-20T04:32:33.847Z,0.00
2023-01-20T04:33:33.839Z,0.00
2023-01-20T04:34:33.869Z,0.00
2023-01-20T04:35:33.825Z,0.00
2023-01-20T04:36:33.811Z,0.00
2023-01-20T04:37:33.806Z,0.00
2023-01-20T04:38:33.812Z,0.00
2023-01-20T04:39:33.770Z,0.00
2023-01-20T04:40:33.788Z,0.00
2023-01-20T04:41:33.749Z,0.00
2023-01-20T04:42:33.741Z,0.00
2023-01-20T04:43:33.728Z,0.00
2023-01-20T04:44:33.720Z,0.00
2023-01-20T04:45:33.728Z,0.00
2023-01-20T04:46:35.999Z,0.00
2023-01-20T04:47:33.702Z,0.00
2023-01-20T04:48:33.676Z,0.00
2023-01-20T04:49:33.684Z,0.00
2023-01-20T04:50:33.685Z,0.00
2023-01-20T04:51:33.642Z,0.00
2023-01-20T04:52:33.633Z,0.00
2023-01-20T04:53:33.617Z,0.00
2023-01-20T04:54:33.634Z,0.00
2023-01-20T04:55:33.597Z,0.00
2023-01-20T04:56:33.596Z,0.00
2023-01-20T04:57:33.582Z,0.00
2023-01-20T04:58:33.574Z,0.00
2023-01-20T04:59:33.583Z,0.00
2023-01-20T05:00:33.548Z,0.00
2023-01-20T05:01:33.628Z,0.00
2023-01-20T05:02:33.560Z,0.00
2023-01-20T05:03:33.508Z,0.00
2023-01-20T05:04:33.525Z,0.00
2023-01-20T05:05:33.487Z,0.00
2023-01-20T05:06:33.501Z,0.00
2023-01-20T05:07:33.468Z,0.00
2023-01-20T05:08:33.461Z,0.00
2023-01-20T05:09:33.483Z,0.00
2023-01-20T05:10:33.444Z,0.00
2023-01-20T05:11:33.421Z,0.00
2023-01-20T05:12:33.421Z,0.00
2023-01-20T05:13:33.408Z,0.00
2023-01-20T05:14:33.399Z,0.00
2023-01-20T05:15:33.463Z,0.00
2023-01-20T05:16:33.375Z,0.00
2023-01-20T05:17:33.362Z,0.00
2023-01-20T05:18:33.353Z,0.00
2023-01-20T05:19:33.340Z,0.00
2023-01-20T05:20:33.349Z,0.00
2023-01-20T05:21:33.320Z,0.00
2023-01-20T05:22:33.403Z,0.00
2023-01-20T05:23:33.294Z,0.00
2023-01-20T05:24:33.288Z,0.00
2023-01-20T05:25:33.294Z,0.00
2023-01-20T05:26:33.278Z,0.00
2023-01-20T05:27:33.257Z,0.00
2023-01-20T05:28:33.273Z,0.00
2023-01-20T05:29:33.233Z,0.00
2023-01-20T05:30:33.278Z,0.00
2023-01-20T05:31:33.300Z,0.00
2023-01-20T05:32:33.202Z,0.00
2023-01-20T05:33:33.207Z,0.00
2023-01-20T05:34:33.177Z,0.00
2023-01-20T05:35:33.165Z,0.00
2023-01-20T05:36:33.160Z,0.00
2023-01-20T05:37:33.148Z,0.00
2023-01-20T05:38:33.172Z,0.00
2023-01-20T05:39:33.140Z,0.00
2023-01-20T05:40:33.121Z,0.00
2023-01-20T05:41:33.101Z,0.00
2023-01-20T05:42:33.094Z,0.00
2023-01-20T05:43:33.112Z,0.00
2023-01-20T05:44:33.097Z,0.00
2023-01-20T05:45:33.091Z,0.00
2023-01-20T05:46:33.080Z,0.00
2023-01-20T05:47:33.047Z,0.00
2023-01-20T05:48:33.030Z,0.00
2023-01-20T05:49:33.048Z,0.00
2023-01-20T05:50:33.014Z,0.00
2023-01-20T05:51:32.996Z,0.00
2023-01-20T05:52:32.988Z,0.00
2023-01-20T05:53:32.977Z,0.00
2023-01-20T05:54:33.007Z,0.00
2023-01-20T05:55:32.962Z,0.00
2023-01-20T05:56:32.957Z,0.00
2023-01-20T05:57:32.937Z,0.00
2023-01-20T05:58:32.923Z,0.00
2023-01-20T05:59:32.940Z,0.00
2023-01-20T06:00:32.927Z,0.00
2023-01-20T06:01:32.993Z,0.00
2023-01-20T06:02:32.936Z,0.00
2023-01-20T06:03:32.888Z,0.00
2023-01-20T06:04:32.881Z,0.00
2023-01-20T06:05:32.850Z,0.00
2023-01-20T06:06:32.847Z,0.00
2023-01-20T06:07:32.823Z,0.00
2023-01-20T06:08:32.826Z,0.00
2023-01-20T06:09:32.800Z,0.00
2023-01-20T06:10:32.832Z,0.00
2023-01-20T06:11:32.798Z,0.00
2023-01-20T06:12:32.776Z,0.00
2023-01-20T06:13:32.787Z,0.00
2023-01-20T06:14:32.756Z,0.00
2023-01-20T06:15:32.739Z,0.00
2023-01-20T06:16:32.778Z,0.00
2023-01-20T06:17:32.718Z,0.00
2023-01-20T06:18:32.732Z,0.00
2023-01-20T06:19:32.705Z,0.00
2023-01-20T06:20:32.687Z,0.00
2023-01-20T06:21:32.678Z,0.00
2023-01-20T06:22:32.696Z,0.00
2023-01-20T06:23:32.647Z,0.00
2023-01-20T06:24:32.645Z,0.00
2023-01-20T06:25:32.632Z,0.00
2023-01-20T06:26:32.666Z,0.00
2023-01-20T06:27:32.615Z,0.00
2023-01-20T06:28:32.602Z,0.00
2023-01-20T06:29:32.589Z,0.00
2023-01-20T06:30:32.720Z,0.00
2023-01-20T06:31:32.638Z,0.00
2023-01-20T06:32:32.561Z,0.00
2023-01-20T06:33:32.571Z,0.00
2023-01-20T06:34:32.559Z,0.00
2023-01-20T06:35:32.524Z,0.00
2023-01-20T06:36:32.561Z,0.00
2023-01-20T06:37:32.502Z,0.00
2023-01-20T06:38:32.493Z,0.00
2023-01-20T06:39:32.482Z,0.00
2023-01-20T06:40:32.481Z,0.00
2023-01-20T06:41:32.509Z,0.00
2023-01-20T06:42:32.473Z,0.00
2023-01-20T06:43:32.439Z,0.00
2023-01-20T06:44:32.436Z,0.00
2023-01-20T06:45:32.424Z,0.00
2023-01-20T06:46:32.434Z,0.00
2023-01-20T06:47:32.399Z,0.00
2023-01-20T06:48:32.413Z,0.00
2023-01-20T06:49:32.377Z,0.00
2023-01-20T06:50:32.371Z,0.00
2023-01-20T06:51:32.352Z,0.00
2023-01-20T06:52:32.350Z,0.00
2023-01-20T06:53:32.365Z,4.00
2023-01-20T06:54:32.326Z,4.00
2023-01-20T06:55:32.317Z,4.00
2023-01-20T06:56:32.302Z,0.00
2023-01-20T06:57:32.291Z,0.00
2023-01-20T06:58:32.329Z,0.00
2023-01-20T06:59:32.266Z,4.00
2023-01-20T07:00:32.278Z,4.00
2023-01-20T07:01:32.395Z,4.00
2023-01-20T07:02:32.283Z,4.00
2023-01-20T07:03:32.227Z,4.00
2023-01-20T07:04:32.213Z,4.00
2023-01-20T07:05:32.211Z,4.00
2023-01-20T07:06:32.192Z,4.00
2023-01-20T07:07:32.200Z,8.00
2023-01-20T07:08:32.172Z,8.00
2023-01-20T07:09:32.162Z,4.00
2023-01-20T07:10:32.146Z,4.00
2023-01-20T07:11:32.151Z,8.00
2023-01-20T07:12:32.154Z,8.00
2023-01-20T07:13:32.118Z,8.00
2023-01-20T07:14:32.149Z,8.00
2023-01-20T07:15:32.103Z,8.00
2023-01-20T07:16:32.136Z,8.00
2023-01-20T07:17:32.083Z,8.00
2023-01-20T07:18:32.093Z,8.00
2023-01-20T07:19:32.135Z,8.00
2023-01-20T07:20:32.043Z,12.00
2023-01-20T07:21:32.032Z,8.00
2023-01-20T07:22:32.023Z,12.00
2023-01-20T07:23:32.043Z,12.00
2023-01-20T07:24:32.000Z,12.00
2023-01-20T07:25:31.996Z,12.00
2023-01-20T07:26:31.987Z,12.00
2023-01-20T07:27:31.968Z,16.00
2023-01-20T07:28:31.975Z,12.00
2023-01-20T07:29:31.946Z,16.00
2023-01-20T07:30:31.997Z,20.00
2023-01-20T07:31:31.999Z,20.00
2023-01-20T07:32:31.938Z,20.00
2023-01-20T07:33:31.902Z,20.00
2023-01-20T07:34:31.900Z,20.00
2023-01-20T07:35:31.881Z,20.00
2023-01-20T07:36:31.872Z,20.00
2023-01-20T07:37:31.915Z,20.00
2023-01-20T07:38:31.879Z,24.00
2023-01-20T07:39:31.854Z,20.00
2023-01-20T07:40:31.827Z,24.00
2023-01-20T07:41:31.819Z,24.00
2023-01-20T07:42:31.835Z,20.00
2023-01-20T07:43:31.799Z,20.00
2023-01-20T07:44:31.787Z,24.00
2023-01-20T07:45:31.817Z,24.00
2023-01-20T07:46:31.809Z,24.00
2023-01-20T07:47:31.762Z,28.00
2023-01-20T07:48:31.752Z,28.00
2023-01-20T07:49:31.736Z,28.00
2023-01-20T07:50:31.720Z,24.00
2023-01-20T07:51:31.733Z,24.00
2023-01-20T07:52:31.710Z,28.00
2023-01-20T07:53:31.692Z,28.00
2023-01-20T07:54:31.708Z,28.00
2023-01-20T07:55:31.679Z,28.00
2023-01-20T07:56:31.684Z,28.00
2023-01-20T07:57:31.690Z,28.00
2023-01-20T07:58:31.639Z,28.00
2023-01-20T07:59:31.645Z,32.00
2023-01-20T08:00:31.616Z,28.00
2023-01-20T08:01:31.741Z,32.00
2023-01-20T08:02:31.611Z,36.00
2023-01-20T08:03:31.583Z,36.00
2023-01-20T08:04:31.592Z,36.00
2023-01-20T08:05:31.563Z,36.00
2023-01-20T08:06:31.550Z,36.00
2023-01-20T08:07:31.564Z,36.00
2023-01-20T08:08:31.531Z,32.00
2023-01-20T08:09:31.537Z,32.00
2023-01-20T08:10:31.560Z,36.00
2023-01-20T08:11:31.505Z,36.00
2023-01-20T08:12:31.482Z,44.00
2023-01-20T08:13:31.480Z,40.00
2023-01-20T08:14:31.485Z,44.00
2023-01-20T08:15:31.469Z,48.00
2023-01-20T08:16:31.494Z,52.00
2023-01-20T08:17:31.439Z,56.00
2023-01-20T08:18:31.442Z,64.00
2023-01-20T08:19:31.457Z,64.00
2023-01-20T08:20:31.398Z,56.00
2023-01-20T08:21:31.420Z,56.00
2023-01-20T08:22:31.397Z,56.00
2023-01-20T08:23:31.366Z,60.00
2023-01-20T08:24:31.379Z,68.00
2023-01-20T08:25:31.349Z,68.00
2023-01-20T08:26:31.347Z,72.00
2023-01-20T08:27:31.325Z,76.00
2023-01-20T08:28:31.315Z,84.00
2023-01-20T08:29:31.330Z,80.00
2023-01-20T08:30:31.452Z,72.00
2023-01-20T08:31:31.437Z,68.00
2023-01-20T08:32:31.275Z,72.00
2023-01-20T08:33:31.283Z,84.00
2023-01-20T08:34:31.273Z,92.00
2023-01-20T08:35:31.242Z,100.00
2023-01-20T08:36:31.237Z,96.00
2023-01-20T08:37:31.221Z,100.00
2023-01-20T08:38:31.226Z,100.00
2023-01-20T08:39:31.223Z,96.00
2023-01-20T08:40:33.282Z,100.00
2023-01-20T08:41:31.185Z,96.00
2023-01-20T08:42:31.163Z,100.00
2023-01-20T08:43:31.152Z,104.00
2023-01-20T08:44:31.175Z,108.00
2023-01-20T08:45:31.136Z,112.00
2023-01-20T08:46:31.118Z,112.00
2023-01-20T08:47:31.122Z,108.00
2023-01-20T08:48:31.122Z,100.00
2023-01-20T08:49:31.092Z,100.00
2023-01-20T08:50:31.103Z,104.00
2023-01-20T08:51:31.138Z,104.00
2023-01-20T08:52:31.060Z,108.00
2023-01-20T08:53:31.088Z,104.00
2023-01-20T08:54:31.036Z,104.00
2023-01-20T08:55:31.028Z,108.00
2023-01-20T08:56:31.019Z,104.00
2023-01-20T08:57:31.016Z,104.00
2023-01-20T08:58:31.016Z,104.00
2023-01-20T08:59:30.992Z,108.00
2023-01-20T09:00:30.992Z,108.00
2023-01-20T09:01:31.075Z,112.00
2023-01-20T09:02:31.038Z,120.00
2023-01-20T09:03:33.040Z,120.00
2023-01-20T09:04:30.929Z,124.00
2023-01-20T09:05:30.924Z,128.00
2023-01-20T09:06:30.934Z,128.00
2023-01-20T09:07:30.895Z,136.00
2023-01-20T09:08:30.887Z,140.00
2023-01-20T09:09:30.899Z,140.00
2023-01-20T09:10:30.884Z,140.00
2023-01-20T09:11:31.022Z,140.00
2023-01-20T09:12:30.842Z,132.00
2023-01-20T09:13:30.831Z,128.00
2023-01-20T09:14:30.821Z,120.00
2023-01-20T09:15:30.852Z,116.00
2023-01-20T09:16:30.801Z,116.00
2023-01-20T09:17:30.795Z,120.00
2023-01-20T09:18:30.776Z,120.00
2023-01-20T09:19:30.793Z,124.00
2023-01-20T09:20:30.762Z,132.00
2023-01-20T09:21:30.748Z,140.00
2023-01-20T09:22:30.815Z,148.00
2023-01-20T09:23:30.724Z,152.00
2023-01-20T09:24:30.750Z,152.00
2023-01-20T09:25:30.732Z,160.00
2023-01-20T09:26:35.810Z,164.00
2023-01-20T09:27:31.703Z,164.00
2023-01-20T09:28:30.671Z,164.00
2023-01-20T09:29:30.666Z,156.00
2023-01-20T09:30:30.669Z,152.00
2023-01-20T09:31:30.887Z,144.00
2023-01-20T09:32:30.636Z,144.00
2023-01-20T09:33:30.641Z,148.00
2023-01-20T09:34:30.611Z,152.00
2023-01-20T09:35:30.616Z,152.00
2023-01-20T09:36:30.587Z,152.00
2023-01-20T09:37:30.579Z,144.00
2023-01-20T09:38:30.619Z,144.00
2023-01-20T09:39:30.567Z,148.00
2023-01-20T09:40:30.545Z,148.00
2023-01-20T09:41:30.541Z,148.00
2023-01-20T09:42:30.521Z,148.00
2023-01-20T09:43:30.538Z,144.00
2023-01-20T09:44:30.500Z,144.00
2023-01-20T09:45:30.515Z,144.00
2023-01-20T09:46:30.543Z,144.00
2023-01-20T09:47:31.281Z,144.00
2023-01-20T09:48:30.457Z,144.00
2023-01-20T09:49:30.480Z,144.00
2023-01-20T09:50:30.454Z,148.00
2023-01-20T09:51:30.432Z,148.00
2023-01-20T09:52:30.422Z,156.00
2023-01-20T09:53:30.403Z,160.00
2023-01-20T09:54:30.447Z,164.00
2023-01-20T09:55:30.380Z,164.00
2023-01-20T09:56:30.400Z,160.00
2023-01-20T09:57:30.361Z,164.00
2023-01-20T09:58:30.356Z,164.00
2023-01-20T09:59:30.356Z,168.00
2023-01-20T10:00:30.365Z,176.00
2023-01-20T10:01:30.339Z,176.00
2023-01-20T10:02:30.303Z,164.00
2023-01-20T10:03:30.300Z,160.00
2023-01-20T10:04:30.286Z,156.00
2023-01-20T10:05:30.362Z,160.00
2023-01-20T10:06:30.289Z,164.00
2023-01-20T10:07:30.252Z,168.00
2023-01-20T10:08:30.240Z,164.00
2023-01-20T10:09:33.362Z,160.00
2023-01-20T10:10:30.263Z,168.00
2023-01-20T10:11:30.288Z,176.00
2023-01-20T10:12:30.200Z,188.00
2023-01-20T10:13:30.197Z,196.00
2023-01-20T10:14:30.180Z,204.00
2023-01-20T10:15:30.183Z,224.00
2023-01-20T10:16:30.154Z,240.00
2023-01-20T10:17:30.149Z,244.00
2023-01-20T10:18:30.139Z,244.00
2023-01-20T10:19:30.134Z,236.00
2023-01-20T10:20:30.149Z,232.00
2023-01-20T10:21:30.131Z,228.00
2023-01-20T10:22:30.102Z,224.00
2023-01-20T10:23:30.081Z,220.00
2023-01-20T10:24:30.073Z,220.00
2023-01-20T10:25:30.057Z,224.00
2023-01-20T10:26:30.104Z,224.00
2023-01-20T10:27:30.064Z,232.00
2023-01-20T10:28:30.052Z,244.00
2023-01-20T10:29:30.022Z,244.00
2023-01-20T10:30:30.078Z,248.00
2023-01-20T10:31:30.083Z,244.00
2023-01-20T10:32:29.984Z,232.00
2023-01-20T10:33:29.975Z,224.00
2023-01-20T10:34:29.964Z,220.00
2023-01-20T10:35:29.949Z,216.00
2023-01-20T10:36:29.936Z,216.00
2023-01-20T10:37:29.961Z,228.00
2023-01-20T10:38:29.924Z,236.00
2023-01-20T10:39:29.908Z,244.00
2023-01-20T10:40:29.955Z,252.00
2023-01-20T10:41:29.893Z,252.00
2023-01-20T10:42:29.907Z,248.00
2023-01-20T10:43:29.869Z,240.00
2023-01-20T10:44:29.855Z,248.00
2023-01-20T10:45:29.846Z,260.00
2023-01-20T10:46:29.886Z,268.00
2023-01-20T10:47:29.853Z,260.00
2023-01-20T10:48:29.809Z,240.00
2023-01-20T10:49:29.800Z,228.00
2023-01-20T10:50:29.830Z,228.00
2023-01-20T10:51:29.807Z,240.00
2023-01-20T10:52:29.790Z,260.00
2023-01-20T10:53:29.758Z,272.00
2023-01-20T10:54:29.743Z,268.00
2023-01-20T10:55:29.751Z,272.00
2023-01-20T10:56:31.146Z,280.00
2023-01-20T10:57:29.733Z,296.00
2023-01-20T10:58:29.775Z,316.00
2023-01-20T10:59:29.698Z,336.00
2023-01-20T11:00:29.710Z,332.00
2023-01-20T11:01:29.707Z,312.00
2023-01-20T11:02:29.827Z,300.00
2023-01-20T11:03:29.690Z,284.00
2023-01-20T11:04:29.641Z,284.00
2023-01-20T11:05:29.653Z,276.00
2023-01-20T11:06:29.636Z,276.00
2023-01-20T11:07:29.606Z,280.00
2023-01-20T11:08:29.613Z,284.00
2023-01-20T11:09:29.584Z,276.00
2023-01-20T11:10:29.575Z,264.00
2023-01-20T11:11:29.586Z,256.00
2023-01-20T11:12:29.647Z,252.00
2023-01-20T11:13:29.542Z,252.00
2023-01-20T11:14:29.600Z,260.00
2023-01-20T11:15:29.561Z,268.00
2023-01-20T11:16:29.535Z,256.00
2023-01-20T11:17:29.520Z,244.00
2023-01-20T11:18:29.509Z,248.00
2023-01-20T11:19:29.472Z,252.00
2023-01-20T11:20:29.466Z,268.00
2023-01-20T11:21:29.454Z,276.00
2023-01-20T11:22:29.479Z,284.00
2023-01-20T11:23:29.432Z,280.00
2023-01-20T11:24:29.425Z,272.00
2023-01-20T11:25:29.421Z,264.00
2023-01-20T11:26:29.435Z,244.00
2023-01-20T11:27:29.389Z,228.00
2023-01-20T11:28:29.378Z,224.00
2023-01-20T11:29:29.365Z,224.00
2023-01-20T11:30:29.404Z,224.00
2023-01-20T11:31:29.422Z,240.00
2023-01-20T11:32:29.348Z,268.00
2023-01-20T11:33:29.420Z,288.00
2023-01-20T11:34:29.339Z,272.00
2023-01-20T11:35:29.299Z,268.00
2023-01-20T11:36:29.320Z,256.00
2023-01-20T11:37:29.283Z,268.00
2023-01-20T11:38:29.270Z,256.00
2023-01-20T11:39:29.269Z,232.00
2023-01-20T11:40:29.248Z,200.00
2023-01-20T11:41:29.264Z,184.00
2023-01-20T11:42:29.228Z,188.00
2023-01-20T11:43:29.218Z,184.00
2023-01-20T11:44:29.212Z,180.00
2023-01-20T11:45:29.220Z,184.00
2023-01-20T11:46:29.309Z,184.00
2023-01-20T11:47:29.172Z,184.00
2023-01-20T11:48:29.167Z,196.00
2023-01-20T11:49:29.147Z,196.00
2023-01-20T11:50:29.144Z,196.00
2023-01-20T11:51:29.180Z,196.00
2023-01-20T11:52:29.147Z,204.00
2023-01-20T11:53:29.125Z,212.00
2023-01-20T11:54:29.132Z,208.00
2023-01-20T11:55:29.083Z,208.00
2023-01-20T11:56:29.080Z,208.00
2023-01-20T11:57:29.080Z,216.00
2023-01-20T11:58:29.087Z,228.00
2023-01-20T11:59:29.077Z,240.00
2023-01-20T12:00:29.030Z,256.00
2023-01-20T12:01:29.027Z,276.00
2023-01-20T12:02:29.030Z,296.00
2023-01-20T12:03:29.023Z,288.00
2023-01-20T12:04:29.112Z,264.00
2023-01-20T12:05:28.982Z,260.00
2023-01-20T12:06:28.971Z,252.00
2023-01-20T12:07:28.970Z,256.00
2023-01-20T12:08:28.975Z,260.00
2023-01-20T12:09:28.957Z,248.00
2023-01-20T12:10:28.931Z,240.00
2023-01-20T12:11:28.914Z,232.00
2023-01-20T12:12:28.911Z,228.00
2023-01-20T12:13:28.909Z,224.00
2023-01-20T12:14:28.907Z,240.00
2023-01-20T12:15:28.868Z,268.00
2023-01-20T12:16:28.951Z,276.00
2023-01-20T12:17:28.847Z,260.00
2023-01-20T12:18:28.864Z,240.00
2023-01-20T12:19:28.853Z,228.00
2023-01-20T12:20:28.846Z,216.00
2023-01-20T12:21:28.808Z,208.00
2023-01-20T12:22:28.801Z,196.00
2023-01-20T12:23:28.781Z,172.00
2023-01-20T12:24:42.258Z,156.00
2023-01-20T12:25:29.784Z,160.00
2023-01-20T12:26:28.760Z,152.00
2023-01-20T12:27:28.738Z,144.00
2023-01-20T12:28:28.735Z,144.00
2023-01-20T12:29:28.752Z,148.00
2023-01-20T12:30:28.748Z,148.00
2023-01-20T12:31:28.767Z,148.00
2023-01-20T12:32:28.693Z,136.00
2023-01-20T12:33:28.682Z,124.00
2023-01-20T12:34:28.690Z,132.00
2023-01-20T12:35:28.661Z,136.00
2023-01-20T12:36:28.672Z,140.00
2023-01-20T12:37:28.661Z,144.00
2023-01-20T12:38:28.629Z,148.00
2023-01-20T12:39:28.632Z,156.00
2023-01-20T12:40:28.611Z,160.00
2023-01-20T12:41:28.596Z,168.00
2023-01-20T12:42:28.609Z,172.00
2023-01-20T12:43:28.580Z,176.00
2023-01-20T12:44:28.564Z,180.00
2023-01-20T12:45:28.551Z,188.00
2023-01-20T12:46:28.544Z,192.00
2023-01-20T12:47:28.564Z,192.00
2023-01-20T12:48:28.519Z,200.00
2023-01-20T12:49:28.511Z,204.00
2023-01-20T12:50:28.624Z,200.00
2023-01-20T12:51:28.515Z,192.00
2023-01-20T12:52:28.548Z,192.00
2023-01-20T12:53:28.467Z,196.00
2023-01-20T12:54:35.875Z,204.00
2023-01-20T12:55:29.438Z,204.00
2023-01-20T12:56:28.430Z,208.00
2023-01-20T12:57:28.441Z,212.00
2023-01-20T12:58:28.408Z,204.00